Beauvechain Air Base

EBBE · Brabant Wallon, Wallonia, 比利时

罗盘
风向 的 Beauvechain Air Base 4L/22R
风: 1 kt, 1 beaufort

1 kt

1 kt
改变
0 ft 1.000 2.000 3.000 4.000 5.000
未检测到零云
METAR EBBE 252155Z AUTO VRB01KT 9999 NCD 22/14 Q1012 BLU

METAR Beauvechain Air Base - EBBE

Beauvechain Air Base是,比利时中的中型机场。 该机场位于纬度50,75660和经度4,76874。 该机场有2条跑道: 4L/22R 和 4R/22L. 本场的ICAO机场代码为EBBE。 机场在Bruxelles FIR中。

该航空气象观测是针对Beauvechain Air Base在2024年6月25日 23:55, 当地时间进行的。

机场观察

可变方向的风很小或没有风。

可见度为10 km 或者更多。

有未检测到零云。 没有观察到天花板。

温度和风寒是22 °C。 露点为14 °C,相对湿度为61%。 海平面上的气压为1012 hPa (QNH)。

白天

今天,太阳从05:29升起,在21:58降落。 这适用于Beauvechain Air Base,世界夏令时可能有所不同。 当地时间与世界标准时间之间的时差为+2 小时。 夏令时目前正在进行中。

公司介绍

我们没有关于这个机场的公司信息。

体会

到Vliegles.nl去找飞行课程,跳伞和其他飞行体验。 浏览页面,了解Beauvechain Air Base附近所有可用的活动。 你也可以使用搜索功能来寻找你所在地附近的特定飞行课程、跳伞或其他飞行体验。

跑道

Id 标题 侧风 逆风 侧风 %
4L/22R 037°-217° 60 %
4R/22L 037°-217° 60 %

逆风成分最大的方向会被突出显示,并用于横风计算。 这并不一定意味着这个方向在使用。

乌云

- NCD 未检测到零云

温度 & 天气

温度 22 °C
露点 14 °C
相对湿度 61%
Kp-index 0 (0-9)

白天

日出
05:29 (4:55)
中午
13:43
日落
21:58

小工具

你想在你的网站上有一个关于Beauvechain Air Base的当前航空天气(METAR)的小部件吗?

显示HTML代码
报告变更